sensor_id;sensor_type;location;lat;lon;timestamp;P1;durP1;ratioP1;P2;durP2;ratioP2
54201;SDS011;40108;53.152;5.844;2023-04-30T00:02:23;15.30;;;3.80;;
54201;SDS011;40108;53.152;5.844;2023-04-30T00:04:49;9.82;;;3.28;;
54201;SDS011;40108;53.152;5.844;2023-04-30T00:07:15;10.73;;;3.75;;
54201;SDS011;40108;53.152;5.844;2023-04-30T00:09:41;16.40;;;4.20;;
54201;SDS011;40108;53.152;5.844;2023-04-30T00:12:07;10.68;;;3.95;;
54201;SDS011;40108;53.152;5.844;2023-04-30T00:14:33;11.45;;;4.05;;
54201;SDS011;40108;53.152;5.844;2023-04-30T00:16:58;17.98;;;4.53;;
54201;SDS011;40108;53.152;5.844;2023-04-30T00:19:24;11.98;;;3.60;;
54201;SDS011;40108;53.152;5.844;2023-04-30T00:21:50;12.15;;;4.00;;
54201;SDS011;40108;53.152;5.844;2023-04-30T00:24:16;12.13;;;4.00;;
54201;SDS011;40108;53.152;5.844;2023-04-30T00:26:41;8.32;;;3.85;;
54201;SDS011;40108;53.152;5.844;2023-04-30T00:29:08;11.95;;;4.38;;
54201;SDS011;40108;53.152;5.844;2023-04-30T00:31:34;14.27;;;4.18;;
54201;SDS011;40108;53.152;5.844;2023-04-30T00:34:00;10.77;;;3.90;;
54201;SDS011;40108;53.152;5.844;2023-04-30T00:36:26;10.98;;;4.45;;
54201;SDS011;40108;53.152;5.844;2023-04-30T00:38:51;12.88;;;4.18;;
54201;SDS011;40108;53.152;5.844;2023-04-30T00:41:17;11.10;;;4.80;;
54201;SDS011;40108;53.152;5.844;2023-04-30T00:43:43;11.32;;;4.63;;
54201;SDS011;40108;53.152;5.844;2023-04-30T00:46:11;10.43;;;4.55;;
54201;SDS011;40108;53.152;5.844;2023-04-30T00:48:37;18.33;;;5.07;;
54201;SDS011;40108;53.152;5.844;2023-04-30T00:51:03;15.02;;;4.65;;
54201;SDS011;40108;53.152;5.844;2023-04-30T00:53:30;15.90;;;4.75;;
54201;SDS011;40108;53.152;5.844;2023-04-30T00:55:56;16.50;;;5.20;;
54201;SDS011;40108;53.152;5.844;2023-04-30T00:58:22;17.13;;;5.55;;
54201;SDS011;40108;53.152;5.844;2023-04-30T01:00:48;11.85;;;5.00;;
54201;SDS011;40108;53.152;5.844;2023-04-30T01:03:15;13.77;;;5.28;;
54201;SDS011;40108;53.152;5.844;2023-04-30T01:05:40;14.32;;;4.93;;
54201;SDS011;40108;53.152;5.844;2023-04-30T01:08:06;12.90;;;5.43;;
54201;SDS011;40108;53.152;5.844;2023-04-30T01:10:40;14.57;;;5.05;;
54201;SDS011;40108;53.152;5.844;2023-04-30T01:13:33;13.18;;;4.88;;
54201;SDS011;40108;53.152;5.844;2023-04-30T01:16:22;14.75;;;5.68;;
54201;SDS011;40108;53.152;5.844;2023-04-30T01:18:51;10.10;;;5.18;;
54201;SDS011;40108;53.152;5.844;2023-04-30T01:21:26;15.07;;;5.22;;
54201;SDS011;40108;53.152;5.844;2023-04-30T01:26:59;14.80;;;5.38;;
54201;SDS011;40108;53.152;5.844;2023-04-30T01:29:53;12.98;;;5.03;;
54201;SDS011;40108;53.152;5.844;2023-04-30T01:32:20;15.43;;;5.50;;
54201;SDS011;40108;53.152;5.844;2023-04-30T01:34:46;11.63;;;5.50;;
54201;SDS011;40108;53.152;5.844;2023-04-30T01:37:16;15.10;;;5.22;;
54201;SDS011;40108;53.152;5.844;2023-04-30T01:39:56;13.77;;;6.10;;
54201;SDS011;40108;53.152;5.844;2023-04-30T01:50:49;18.15;;;5.25;;
54201;SDS011;40108;53.152;5.844;2023-04-30T01:53:21;14.88;;;5.05;;
54201;SDS011;40108;53.152;5.844;2023-04-30T01:55:57;12.43;;;5.40;;
54201;SDS011;40108;53.152;5.844;2023-04-30T01:58:26;13.98;;;5.40;;
54201;SDS011;40108;53.152;5.844;2023-04-30T02:00:53;13.55;;;5.43;;
54201;SDS011;40108;53.152;5.844;2023-04-30T02:03:19;18.77;;;4.93;;
54201;SDS011;40108;53.152;5.844;2023-04-30T02:05:46;18.80;;;5.60;;
54201;SDS011;40108;53.152;5.844;2023-04-30T02:08:12;18.33;;;5.70;;
54201;SDS011;40108;53.152;5.844;2023-04-30T02:10:38;20.48;;;5.13;;
54201;SDS011;40108;53.152;5.844;2023-04-30T02:13:04;15.07;;;5.20;;
54201;SDS011;40108;53.152;5.844;2023-04-30T02:15:29;16.83;;;5.75;;
54201;SDS011;40108;53.152;5.844;2023-04-30T02:17:55;12.93;;;5.40;;
54201;SDS011;40108;53.152;5.844;2023-04-30T02:20:21;20.23;;;5.75;;
54201;SDS011;40108;53.152;5.844;2023-04-30T02:22:47;16.13;;;5.57;;
54201;SDS011;40108;53.152;5.844;2023-04-30T02:25:12;16.30;;;5.63;;
54201;SDS011;40108;53.152;5.844;2023-04-30T02:27:38;18.33;;;5.38;;
54201;SDS011;40108;53.152;5.844;2023-04-30T02:30:04;14.20;;;4.95;;
54201;SDS011;40108;53.152;5.844;2023-04-30T02:32:30;14.73;;;5.20;;
54201;SDS011;40108;53.152;5.844;2023-04-30T02:34:56;11.15;;;4.80;;
54201;SDS011;40108;53.152;5.844;2023-04-30T02:37:22;14.63;;;4.75;;
54201;SDS011;40108;53.152;5.844;2023-04-30T02:39:48;12.82;;;4.32;;
54201;SDS011;40108;53.152;5.844;2023-04-30T02:42:13;10.35;;;4.72;;
54201;SDS011;40108;53.152;5.844;2023-04-30T02:44:39;14.38;;;4.90;;
54201;SDS011;40108;53.152;5.844;2023-04-30T02:47:05;16.15;;;4.40;;
54201;SDS011;40108;53.152;5.844;2023-04-30T02:49:30;15.13;;;4.95;;
54201;SDS011;40108;53.152;5.844;2023-04-30T02:51:56;12.60;;;4.93;;
54201;SDS011;40108;53.152;5.844;2023-04-30T02:54:22;12.68;;;4.40;;
54201;SDS011;40108;53.152;5.844;2023-04-30T02:56:47;17.63;;;5.07;;
54201;SDS011;40108;53.152;5.844;2023-04-30T02:59:13;11.63;;;4.20;;
54201;SDS011;40108;53.152;5.844;2023-04-30T03:01:39;11.25;;;4.47;;
54201;SDS011;40108;53.152;5.844;2023-04-30T03:04:05;13.73;;;5.15;;
54201;SDS011;40108;53.152;5.844;2023-04-30T03:06:31;16.30;;;5.32;;
54201;SDS011;40108;53.152;5.844;2023-04-30T03:08:57;11.75;;;4.88;;
54201;SDS011;40108;53.152;5.844;2023-04-30T03:11:23;13.02;;;4.82;;
54201;SDS011;40108;53.152;5.844;2023-04-30T03:13:49;15.50;;;4.82;;
54201;SDS011;40108;53.152;5.844;2023-04-30T03:16:18;17.75;;;4.80;;
54201;SDS011;40108;53.152;5.844;2023-04-30T03:18:46;14.25;;;4.55;;
54201;SDS011;40108;53.152;5.844;2023-04-30T03:21:12;17.25;;;4.20;;
54201;SDS011;40108;53.152;5.844;2023-04-30T03:23:38;14.82;;;4.82;;
54201;SDS011;40108;53.152;5.844;2023-04-30T03:26:04;13.15;;;4.82;;
54201;SDS011;40108;53.152;5.844;2023-04-30T03:28:30;14.98;;;4.85;;
54201;SDS011;40108;53.152;5.844;2023-04-30T03:30:56;18.27;;;4.63;;
54201;SDS011;40108;53.152;5.844;2023-04-30T03:33:23;12.52;;;4.70;;
54201;SDS011;40108;53.152;5.844;2023-04-30T03:35:48;15.18;;;4.88;;
54201;SDS011;40108;53.152;5.844;2023-04-30T03:38:15;15.85;;;4.60;;
54201;SDS011;40108;53.152;5.844;2023-04-30T03:40:41;14.38;;;4.65;;
54201;SDS011;40108;53.152;5.844;2023-04-30T03:43:07;10.65;;;4.00;;
54201;SDS011;40108;53.152;5.844;2023-04-30T03:45:33;12.07;;;4.38;;
54201;SDS011;40108;53.152;5.844;2023-04-30T03:47:58;11.68;;;3.88;;
54201;SDS011;40108;53.152;5.844;2023-04-30T03:50:24;15.68;;;4.25;;
54201;SDS011;40108;53.152;5.844;2023-04-30T03:52:50;17.00;;;4.15;;
54201;SDS011;40108;53.152;5.844;2023-04-30T03:55:16;13.50;;;4.45;;
54201;SDS011;40108;53.152;5.844;2023-04-30T03:57:42;12.93;;;4.38;;
54201;SDS011;40108;53.152;5.844;2023-04-30T04:00:10;10.48;;;3.92;;
54201;SDS011;40108;53.152;5.844;2023-04-30T04:02:39;12.07;;;4.72;;
54201;SDS011;40108;53.152;5.844;2023-04-30T04:05:05;15.10;;;5.20;;
54201;SDS011;40108;53.152;5.844;2023-04-30T04:07:32;13.77;;;5.53;;
54201;SDS011;40108;53.152;5.844;2023-04-30T04:09:57;17.63;;;5.40;;
54201;SDS011;40108;53.152;5.844;2023-04-30T04:12:23;9.82;;;5.10;;
54201;SDS011;40108;53.152;5.844;2023-04-30T04:14:49;13.05;;;6.40;;
54201;SDS011;40108;53.152;5.844;2023-04-30T04:17:15;10.32;;;5.05;;
54201;SDS011;40108;53.152;5.844;2023-04-30T04:19:40;19.52;;;6.18;;
54201;SDS011;40108;53.152;5.844;2023-04-30T04:22:06;18.77;;;5.15;;
54201;SDS011;40108;53.152;5.844;2023-04-30T04:24:32;13.85;;;5.40;;
54201;SDS011;40108;53.152;5.844;2023-04-30T04:26:58;15.88;;;5.70;;
54201;SDS011;40108;53.152;5.844;2023-04-30T04:29:26;12.40;;;5.50;;
54201;SDS011;40108;53.152;5.844;2023-04-30T04:31:52;17.90;;;6.00;;
54201;SDS011;40108;53.152;5.844;2023-04-30T04:34:19;14.27;;;5.95;;
54201;SDS011;40108;53.152;5.844;2023-04-30T04:36:45;13.85;;;6.07;;
54201;SDS011;40108;53.152;5.844;2023-04-30T04:39:10;18.40;;;6.00;;
54201;SDS011;40108;53.152;5.844;2023-04-30T04:41:37;11.30;;;5.65;;
54201;SDS011;40108;53.152;5.844;2023-04-30T04:44:03;12.57;;;5.70;;
54201;SDS011;40108;53.152;5.844;2023-04-30T04:46:29;15.90;;;5.53;;
54201;SDS011;40108;53.152;5.844;2023-04-30T04:48:56;14.75;;;5.55;;
54201;SDS011;40108;53.152;5.844;2023-04-30T04:51:22;13.80;;;5.70;;
54201;SDS011;40108;53.152;5.844;2023-04-30T04:53:48;11.18;;;5.90;;
54201;SDS011;40108;53.152;5.844;2023-04-30T04:56:14;14.82;;;5.70;;
54201;SDS011;40108;53.152;5.844;2023-04-30T04:58:40;17.13;;;5.80;;
54201;SDS011;40108;53.152;5.844;2023-04-30T05:01:06;15.68;;;5.75;;
54201;SDS011;40108;53.152;5.844;2023-04-30T05:03:33;14.88;;;5.00;;
54201;SDS011;40108;53.152;5.844;2023-04-30T05:06:02;16.48;;;5.80;;
54201;SDS011;40108;53.152;5.844;2023-04-30T05:08:29;16.70;;;5.65;;
54201;SDS011;40108;53.152;5.844;2023-04-30T05:10:55;13.57;;;5.40;;
54201;SDS011;40108;53.152;5.844;2023-04-30T05:13:21;14.23;;;5.32;;
54201;SDS011;40108;53.152;5.844;2023-04-30T05:15:48;12.05;;;5.20;;
54201;SDS011;40108;53.152;5.844;2023-04-30T05:18:15;17.67;;;5.43;;
54201;SDS011;40108;53.152;5.844;2023-04-30T05:20:41;18.02;;;5.70;;
54201;SDS011;40108;53.152;5.844;2023-04-30T05:23:07;15.30;;;5.18;;
54201;SDS011;40108;53.152;5.844;2023-04-30T05:25:32;15.15;;;5.15;;
54201;SDS011;40108;53.152;5.844;2023-04-30T05:27:59;13.52;;;4.88;;
54201;SDS011;40108;53.152;5.844;2023-04-30T05:30:25;15.63;;;4.93;;
54201;SDS011;40108;53.152;5.844;2023-04-30T05:32:50;13.52;;;4.88;;
54201;SDS011;40108;53.152;5.844;2023-04-30T05:35:17;11.68;;;4.63;;
54201;SDS011;40108;53.152;5.844;2023-04-30T05:37:43;12.13;;;4.60;;
54201;SDS011;40108;53.152;5.844;2023-04-30T05:40:09;15.55;;;4.57;;
54201;SDS011;40108;53.152;5.844;2023-04-30T05:42:36;19.98;;;4.35;;
54201;SDS011;40108;53.152;5.844;2023-04-30T05:45:04;10.77;;;4.30;;
54201;SDS011;40108;53.152;5.844;2023-04-30T05:47:31;11.90;;;4.28;;
54201;SDS011;40108;53.152;5.844;2023-04-30T05:49:57;11.98;;;4.03;;
54201;SDS011;40108;53.152;5.844;2023-04-30T05:52:22;12.07;;;4.28;;
54201;SDS011;40108;53.152;5.844;2023-04-30T05:54:48;9.38;;;3.95;;
54201;SDS011;40108;53.152;5.844;2023-04-30T05:57:14;17.67;;;4.75;;
54201;SDS011;40108;53.152;5.844;2023-04-30T05:59:40;13.35;;;4.07;;
54201;SDS011;40108;53.152;5.844;2023-04-30T06:02:06;15.88;;;4.32;;
54201;SDS011;40108;53.152;5.844;2023-04-30T06:04:32;16.08;;;4.50;;
54201;SDS011;40108;53.152;5.844;2023-04-30T06:06:57;13.23;;;4.20;;
54201;SDS011;40108;53.152;5.844;2023-04-30T06:09:23;16.70;;;4.28;;
54201;SDS011;40108;53.152;5.844;2023-04-30T06:11:49;15.20;;;4.57;;
54201;SDS011;40108;53.152;5.844;2023-04-30T06:14:19;17.38;;;4.88;;
54201;SDS011;40108;53.152;5.844;2023-04-30T06:16:46;16.55;;;4.20;;
54201;SDS011;40108;53.152;5.844;2023-04-30T06:19:12;14.75;;;4.57;;
54201;SDS011;40108;53.152;5.844;2023-04-30T06:21:38;10.70;;;4.15;;
54201;SDS011;40108;53.152;5.844;2023-04-30T06:24:04;13.32;;;4.82;;
54201;SDS011;40108;53.152;5.844;2023-04-30T06:26:30;12.80;;;4.20;;
54201;SDS011;40108;53.152;5.844;2023-04-30T06:28:56;10.27;;;3.67;;
54201;SDS011;40108;53.152;5.844;2023-04-30T06:31:22;11.95;;;4.00;;
54201;SDS011;40108;53.152;5.844;2023-04-30T06:33:48;12.38;;;3.70;;
54201;SDS011;40108;53.152;5.844;2023-04-30T06:36:14;15.75;;;4.32;;
54201;SDS011;40108;53.152;5.844;2023-04-30T06:38:40;16.50;;;4.32;;
54201;SDS011;40108;53.152;5.844;2023-04-30T06:41:06;13.60;;;4.15;;
54201;SDS011;40108;53.152;5.844;2023-04-30T06:43:32;14.60;;;4.47;;
54201;SDS011;40108;53.152;5.844;2023-04-30T06:45:58;14.35;;;4.00;;
54201;SDS011;40108;53.152;5.844;2023-04-30T06:48:24;11.43;;;2.78;;
54201;SDS011;40108;53.152;5.844;2023-04-30T06:50:50;11.57;;;3.05;;
54201;SDS011;40108;53.152;5.844;2023-04-30T06:53:16;12.85;;;3.08;;
54201;SDS011;40108;53.152;5.844;2023-04-30T06:55:43;10.15;;;3.03;;
54201;SDS011;40108;53.152;5.844;2023-04-30T06:58:10;15.35;;;3.67;;
54201;SDS011;40108;53.152;5.844;2023-04-30T07:00:36;8.77;;;3.47;;
54201;SDS011;40108;53.152;5.844;2023-04-30T07:03:02;13.93;;;3.63;;
54201;SDS011;40108;53.152;5.844;2023-04-30T07:05:29;12.82;;;3.80;;
54201;SDS011;40108;53.152;5.844;2023-04-30T07:07:56;12.93;;;3.72;;
54201;SDS011;40108;53.152;5.844;2023-04-30T07:10:22;9.73;;;3.50;;
54201;SDS011;40108;53.152;5.844;2023-04-30T07:12:47;10.80;;;3.45;;
54201;SDS011;40108;53.152;5.844;2023-04-30T07:15:13;13.30;;;3.55;;
54201;SDS011;40108;53.152;5.844;2023-04-30T07:17:39;10.45;;;3.35;;
54201;SDS011;40108;53.152;5.844;2023-04-30T07:20:06;12.63;;;3.78;;
54201;SDS011;40108;53.152;5.844;2023-04-30T07:22:33;13.45;;;3.22;;
54201;SDS011;40108;53.152;5.844;2023-04-30T07:24:58;10.82;;;3.20;;
54201;SDS011;40108;53.152;5.844;2023-04-30T07:27:25;13.10;;;3.38;;
54201;SDS011;40108;53.152;5.844;2023-04-30T07:29:52;14.77;;;3.40;;
54201;SDS011;40108;53.152;5.844;2023-04-30T07:32:18;9.38;;;2.42;;
54201;SDS011;40108;53.152;5.844;2023-04-30T07:34:44;9.68;;;2.60;;
54201;SDS011;40108;53.152;5.844;2023-04-30T07:37:10;10.23;;;2.67;;
54201;SDS011;40108;53.152;5.844;2023-04-30T07:39:36;10.35;;;3.17;;
54201;SDS011;40108;53.152;5.844;2023-04-30T07:42:02;16.77;;;3.58;;
54201;SDS011;40108;53.152;5.844;2023-04-30T07:44:28;11.07;;;3.17;;
54201;SDS011;40108;53.152;5.844;2023-04-30T07:46:54;10.65;;;3.08;;
54201;SDS011;40108;53.152;5.844;2023-04-30T07:49:20;10.80;;;3.05;;
54201;SDS011;40108;53.152;5.844;2023-04-30T07:51:46;13.15;;;3.38;;
54201;SDS011;40108;53.152;5.844;2023-04-30T07:54:12;10.10;;;3.10;;
54201;SDS011;40108;53.152;5.844;2023-04-30T07:56:38;12.45;;;3.38;;
54201;SDS011;40108;53.152;5.844;2023-04-30T07:59:04;7.13;;;2.50;;
54201;SDS011;40108;53.152;5.844;2023-04-30T08:01:30;14.32;;;2.97;;
54201;SDS011;40108;53.152;5.844;2023-04-30T08:03:56;14.80;;;3.30;;
54201;SDS011;40108;53.152;5.844;2023-04-30T08:06:22;10.90;;;2.90;;
54201;SDS011;40108;53.152;5.844;2023-04-30T08:08:48;13.63;;;2.38;;
54201;SDS011;40108;53.152;5.844;2023-04-30T08:11:14;10.10;;;2.45;;
54201;SDS011;40108;53.152;5.844;2023-04-30T08:13:40;14.45;;;2.45;;
54201;SDS011;40108;53.152;5.844;2023-04-30T08:16:06;13.25;;;3.30;;
54201;SDS011;40108;53.152;5.844;2023-04-30T08:18:32;12.75;;;3.22;;
54201;SDS011;40108;53.152;5.844;2023-04-30T08:20:58;13.57;;;2.67;;
54201;SDS011;40108;53.152;5.844;2023-04-30T08:23:25;12.65;;;2.85;;
54201;SDS011;40108;53.152;5.844;2023-04-30T08:25:51;11.57;;;2.40;;
54201;SDS011;40108;53.152;5.844;2023-04-30T08:28:17;12.35;;;2.63;;
54201;SDS011;40108;53.152;5.844;2023-04-30T08:30:43;11.10;;;2.67;;
54201;SDS011;40108;53.152;5.844;2023-04-30T08:33:08;16.27;;;3.10;;
54201;SDS011;40108;53.152;5.844;2023-04-30T08:35:35;5.78;;;2.22;;
54201;SDS011;40108;53.152;5.844;2023-04-30T08:38:01;11.20;;;2.50;;
54201;SDS011;40108;53.152;5.844;2023-04-30T08:40:26;8.48;;;2.58;;
54201;SDS011;40108;53.152;5.844;2023-04-30T08:43:02;11.80;;;2.65;;
54201;SDS011;40108;53.152;5.844;2023-04-30T08:45:31;8.32;;;2.50;;
54201;SDS011;40108;53.152;5.844;2023-04-30T08:47:58;11.95;;;2.67;;
54201;SDS011;40108;53.152;5.844;2023-04-30T08:50:26;14.45;;;2.38;;
54201;SDS011;40108;53.152;5.844;2023-04-30T08:52:52;12.93;;;2.58;;
54201;SDS011;40108;53.152;5.844;2023-04-30T08:55:18;10.40;;;2.55;;
54201;SDS011;40108;53.152;5.844;2023-04-30T08:57:44;8.52;;;2.60;;
54201;SDS011;40108;53.152;5.844;2023-04-30T09:00:10;11.52;;;2.30;;
54201;SDS011;40108;53.152;5.844;2023-04-30T09:02:40;9.18;;;2.50;;
54201;SDS011;40108;53.152;5.844;2023-04-30T09:05:08;9.82;;;2.17;;
54201;SDS011;40108;53.152;5.844;2023-04-30T09:07:37;9.80;;;2.22;;
54201;SDS011;40108;53.152;5.844;2023-04-30T09:10:13;9.23;;;2.22;;
54201;SDS011;40108;53.152;5.844;2023-04-30T09:12:44;10.15;;;2.60;;
54201;SDS011;40108;53.152;5.844;2023-04-30T09:15:26;8.60;;;2.33;;
54201;SDS011;40108;53.152;5.844;2023-04-30T09:20:56;7.07;;;1.70;;
54201;SDS011;40108;53.152;5.844;2023-04-30T09:23:27;8.88;;;1.92;;
54201;SDS011;40108;53.152;5.844;2023-04-30T09:25:53;5.45;;;2.28;;
54201;SDS011;40108;53.152;5.844;2023-04-30T09:28:19;7.45;;;2.45;;
54201;SDS011;40108;53.152;5.844;2023-04-30T09:30:49;7.57;;;1.98;;
54201;SDS011;40108;53.152;5.844;2023-04-30T09:33:15;9.38;;;2.45;;
54201;SDS011;40108;53.152;5.844;2023-04-30T09:35:41;7.22;;;2.17;;
54201;SDS011;40108;53.152;5.844;2023-04-30T09:38:20;4.78;;;1.67;;
54201;SDS011;40108;53.152;5.844;2023-04-30T09:40:58;7.43;;;2.10;;
54201;SDS011;40108;53.152;5.844;2023-04-30T09:43:26;9.43;;;2.38;;
54201;SDS011;40108;53.152;5.844;2023-04-30T09:45:52;9.40;;;2.50;;
54201;SDS011;40108;53.152;5.844;2023-04-30T09:48:21;8.77;;;2.47;;
54201;SDS011;40108;53.152;5.844;2023-04-30T09:50:47;9.55;;;2.47;;
54201;SDS011;40108;53.152;5.844;2023-04-30T09:53:14;7.82;;;2.30;;
54201;SDS011;40108;53.152;5.844;2023-04-30T09:55:44;11.15;;;2.63;;
54201;SDS011;40108;53.152;5.844;2023-04-30T09:58:11;6.57;;;2.13;;
54201;SDS011;40108;53.152;5.844;2023-04-30T10:00:38;8.45;;;2.45;;
54201;SDS011;40108;53.152;5.844;2023-04-30T10:03:11;11.60;;;2.50;;
54201;SDS011;40108;53.152;5.844;2023-04-30T10:05:47;8.38;;;2.10;;
54201;SDS011;40108;53.152;5.844;2023-04-30T10:08:18;11.68;;;3.75;;
54201;SDS011;40108;53.152;5.844;2023-04-30T10:10:49;7.70;;;2.42;;
54201;SDS011;40108;53.152;5.844;2023-04-30T10:13:42;12.02;;;2.47;;
54201;SDS011;40108;53.152;5.844;2023-04-30T10:18:57;6.60;;;2.60;;
54201;SDS011;40108;53.152;5.844;2023-04-30T10:21:27;8.90;;;2.30;;
54201;SDS011;40108;53.152;5.844;2023-04-30T10:23:56;8.00;;;2.53;;
54201;SDS011;40108;53.152;5.844;2023-04-30T10:26:22;10.82;;;2.70;;
54201;SDS011;40108;53.152;5.844;2023-04-30T10:28:49;10.30;;;2.70;;
54201;SDS011;40108;53.152;5.844;2023-04-30T10:31:15;7.53;;;2.20;;
54201;SDS011;40108;53.152;5.844;2023-04-30T10:33:52;7.82;;;2.33;;
54201;SDS011;40108;53.152;5.844;2023-04-30T10:36:28;7.80;;;2.20;;
54201;SDS011;40108;53.152;5.844;2023-04-30T10:39:09;5.82;;;2.05;;
54201;SDS011;40108;53.152;5.844;2023-04-30T10:41:37;5.47;;;2.30;;
54201;SDS011;40108;53.152;5.844;2023-04-30T10:44:03;9.07;;;2.55;;
54201;SDS011;40108;53.152;5.844;2023-04-30T10:46:33;10.40;;;2.40;;
54201;SDS011;40108;53.152;5.844;2023-04-30T10:49:00;5.50;;;1.98;;
54201;SDS011;40108;53.152;5.844;2023-04-30T10:51:43;7.65;;;2.10;;
54201;SDS011;40108;53.152;5.844;2023-04-30T10:54:30;8.05;;;1.95;;
54201;SDS011;40108;53.152;5.844;2023-04-30T11:02:44;5.72;;;1.75;;
54201;SDS011;40108;53.152;5.844;2023-04-30T11:05:13;6.57;;;1.90;;
54201;SDS011;40108;53.152;5.844;2023-04-30T11:07:49;3.83;;;1.73;;
54201;SDS011;40108;53.152;5.844;2023-04-30T11:10:22;6.22;;;1.50;;
54201;SDS011;40108;53.152;5.844;2023-04-30T11:12:50;3.33;;;1.38;;
54201;SDS011;40108;53.152;5.844;2023-04-30T11:15:17;3.40;;;1.60;;
54201;SDS011;40108;53.152;5.844;2023-04-30T11:17:46;4.55;;;1.42;;
54201;SDS011;40108;53.152;5.844;2023-04-30T11:20:18;3.35;;;1.60;;
54201;SDS011;40108;53.152;5.844;2023-04-30T11:22:46;4.55;;;1.50;;
54201;SDS011;40108;53.152;5.844;2023-04-30T11:25:12;4.53;;;1.52;;
54201;SDS011;40108;53.152;5.844;2023-04-30T11:27:43;2.15;;;1.33;;
54201;SDS011;40108;53.152;5.844;2023-04-30T11:30:13;3.47;;;1.30;;
54201;SDS011;40108;53.152;5.844;2023-04-30T11:32:42;3.85;;;1.60;;
54201;SDS011;40108;53.152;5.844;2023-04-30T11:35:11;5.63;;;1.40;;
54201;SDS011;40108;53.152;5.844;2023-04-30T11:37:41;4.15;;;1.13;;
54201;SDS011;40108;53.152;5.844;2023-04-30T11:40:09;5.90;;;1.75;;
54201;SDS011;40108;53.152;5.844;2023-04-30T11:42:39;2.78;;;1.40;;
54201;SDS011;40108;53.152;5.844;2023-04-30T11:47:37;4.38;;;1.20;;
54201;SDS011;40108;53.152;5.844;2023-04-30T11:50:05;2.83;;;1.10;;
54201;SDS011;40108;53.152;5.844;2023-04-30T11:52:32;3.08;;;1.10;;
54201;SDS011;40108;53.152;5.844;2023-04-30T11:54:58;2.47;;;1.20;;
54201;SDS011;40108;53.152;5.844;2023-04-30T11:57:24;1.85;;;1.10;;
54201;SDS011;40108;53.152;5.844;2023-04-30T11:59:50;2.83;;;1.17;;
54201;SDS011;40108;53.152;5.844;2023-04-30T12:02:16;4.07;;;1.08;;
54201;SDS011;40108;53.152;5.844;2023-04-30T12:04:42;2.75;;;0.90;;
54201;SDS011;40108;53.152;5.844;2023-04-30T12:07:08;2.05;;;0.85;;
54201;SDS011;40108;53.152;5.844;2023-04-30T12:12:26;2.63;;;1.00;;
54201;SDS011;40108;53.152;5.844;2023-04-30T12:14:53;3.90;;;1.10;;
54201;SDS011;40108;53.152;5.844;2023-04-30T12:17:33;2.60;;;1.10;;
54201;SDS011;40108;53.152;5.844;2023-04-30T12:20:00;1.92;;;0.90;;
54201;SDS011;40108;53.152;5.844;2023-04-30T12:22:26;3.90;;;1.42;;
54201;SDS011;40108;53.152;5.844;2023-04-30T12:24:53;3.75;;;1.05;;
54201;SDS011;40108;53.152;5.844;2023-04-30T12:27:20;2.28;;;1.05;;
54201;SDS011;40108;53.152;5.844;2023-04-30T12:29:46;2.80;;;0.90;;
54201;SDS011;40108;53.152;5.844;2023-04-30T12:32:14;2.08;;;1.08;;
54201;SDS011;40108;53.152;5.844;2023-04-30T12:34:43;3.45;;;1.55;;
54201;SDS011;40108;53.152;5.844;2023-04-30T12:37:09;1.58;;;0.95;;
54201;SDS011;40108;53.152;5.844;2023-04-30T12:39:35;3.40;;;1.30;;
54201;SDS011;40108;53.152;5.844;2023-04-30T12:42:01;3.15;;;1.30;;
54201;SDS011;40108;53.152;5.844;2023-04-30T12:44:28;3.30;;;1.23;;
54201;SDS011;40108;53.152;5.844;2023-04-30T12:46:54;2.80;;;1.13;;
54201;SDS011;40108;53.152;5.844;2023-04-30T12:49:28;3.60;;;1.30;;
54201;SDS011;40108;53.152;5.844;2023-04-30T12:52:05;3.28;;;1.60;;
54201;SDS011;40108;53.152;5.844;2023-04-30T12:54:37;2.72;;;1.20;;
54201;SDS011;40108;53.152;5.844;2023-04-30T12:57:04;3.10;;;1.25;;
54201;SDS011;40108;53.152;5.844;2023-04-30T12:59:31;3.97;;;1.30;;
54201;SDS011;40108;53.152;5.844;2023-04-30T13:02:13;3.00;;;0.90;;
54201;SDS011;40108;53.152;5.844;2023-04-30T13:04:40;1.75;;;1.23;;
54201;SDS011;40108;53.152;5.844;2023-04-30T13:07:06;2.25;;;1.30;;
54201;SDS011;40108;53.152;5.844;2023-04-30T13:09:32;2.88;;;1.00;;
54201;SDS011;40108;53.152;5.844;2023-04-30T13:11:59;3.42;;;1.10;;
54201;SDS011;40108;53.152;5.844;2023-04-30T13:14:25;2.60;;;1.27;;
54201;SDS011;40108;53.152;5.844;2023-04-30T13:16:51;2.03;;;1.08;;
54201;SDS011;40108;53.152;5.844;2023-04-30T13:19:21;2.05;;;0.90;;
54201;SDS011;40108;53.152;5.844;2023-04-30T13:21:46;1.55;;;1.00;;
54201;SDS011;40108;53.152;5.844;2023-04-30T13:24:12;1.98;;;1.17;;
54201;SDS011;40108;53.152;5.844;2023-04-30T13:26:38;1.52;;;0.80;;
54201;SDS011;40108;53.152;5.844;2023-04-30T13:29:04;3.50;;;1.02;;
54201;SDS011;40108;53.152;5.844;2023-04-30T13:31:30;0.77;;;0.65;;
54201;SDS011;40108;53.152;5.844;2023-04-30T13:33:56;2.67;;;0.80;;
54201;SDS011;40108;53.152;5.844;2023-04-30T13:36:22;2.05;;;0.77;;
54201;SDS011;40108;53.152;5.844;2023-04-30T13:38:47;2.05;;;1.00;;
54201;SDS011;40108;53.152;5.844;2023-04-30T13:41:13;3.05;;;0.90;;
54201;SDS011;40108;53.152;5.844;2023-04-30T13:43:39;2.58;;;1.10;;
54201;SDS011;40108;53.152;5.844;2023-04-30T13:46:10;2.30;;;0.90;;
54201;SDS011;40108;53.152;5.844;2023-04-30T13:48:36;2.15;;;1.00;;
54201;SDS011;40108;53.152;5.844;2023-04-30T13:51:02;2.00;;;1.10;;
54201;SDS011;40108;53.152;5.844;2023-04-30T13:53:27;1.45;;;0.90;;
54201;SDS011;40108;53.152;5.844;2023-04-30T13:55:53;2.75;;;1.35;;
54201;SDS011;40108;53.152;5.844;2023-04-30T13:58:19;1.95;;;0.98;;
54201;SDS011;40108;53.152;5.844;2023-04-30T14:00:45;5.68;;;1.17;;
54201;SDS011;40108;53.152;5.844;2023-04-30T14:03:11;3.88;;;1.30;;
54201;SDS011;40108;53.152;5.844;2023-04-30T14:05:37;2.40;;;1.30;;
54201;SDS011;40108;53.152;5.844;2023-04-30T14:08:04;1.85;;;1.15;;
54201;SDS011;40108;53.152;5.844;2023-04-30T14:10:30;1.90;;;1.17;;
54201;SDS011;40108;53.152;5.844;2023-04-30T14:12:56;2.08;;;0.88;;
54201;SDS011;40108;53.152;5.844;2023-04-30T14:15:22;1.77;;;0.98;;
54201;SDS011;40108;53.152;5.844;2023-04-30T14:17:48;1.95;;;0.80;;
54201;SDS011;40108;53.152;5.844;2023-04-30T14:20:14;3.72;;;1.17;;
54201;SDS011;40108;53.152;5.844;2023-04-30T14:22:40;2.75;;;1.20;;
54201;SDS011;40108;53.152;5.844;2023-04-30T14:25:06;4.18;;;1.00;;
54201;SDS011;40108;53.152;5.844;2023-04-30T14:27:33;3.78;;;1.08;;
54201;SDS011;40108;53.152;5.844;2023-04-30T14:29:59;2.97;;;1.10;;
54201;SDS011;40108;53.152;5.844;2023-04-30T14:32:25;4.82;;;1.20;;
54201;SDS011;40108;53.152;5.844;2023-04-30T14:34:51;2.20;;;1.02;;
54201;SDS011;40108;53.152;5.844;2023-04-30T14:37:17;3.47;;;1.00;;
54201;SDS011;40108;53.152;5.844;2023-04-30T14:39:43;2.70;;;1.17;;
54201;SDS011;40108;53.152;5.844;2023-04-30T14:42:10;4.60;;;1.20;;
54201;SDS011;40108;53.152;5.844;2023-04-30T14:44:36;2.83;;;1.00;;
54201;SDS011;40108;53.152;5.844;2023-04-30T14:47:02;1.85;;;1.23;;
54201;SDS011;40108;53.152;5.844;2023-04-30T14:49:28;3.45;;;1.20;;
54201;SDS011;40108;53.152;5.844;2023-04-30T14:51:55;2.95;;;1.45;;
54201;SDS011;40108;53.152;5.844;2023-04-30T14:54:21;3.95;;;1.27;;
54201;SDS011;40108;53.152;5.844;2023-04-30T14:56:47;2.97;;;1.20;;
54201;SDS011;40108;53.152;5.844;2023-04-30T14:59:13;3.25;;;1.30;;
54201;SDS011;40108;53.152;5.844;2023-04-30T15:01:40;2.05;;;0.98;;
54201;SDS011;40108;53.152;5.844;2023-04-30T15:04:06;4.00;;;1.25;;
54201;SDS011;40108;53.152;5.844;2023-04-30T15:06:32;3.35;;;1.13;;
54201;SDS011;40108;53.152;5.844;2023-04-30T15:08:58;2.63;;;1.10;;
54201;SDS011;40108;53.152;5.844;2023-04-30T15:11:24;4.57;;;0.95;;